PWSweather.com
Personal Weather Stations
Station Observations
KNCGREEN1000
Bell Orchard Drive, Greensboro, NC 27455

Bell Orchard DriveGreensboro, NC 27455

Lat: 36.132, Lon: -79.8

Elevation: 876

Station Type: Acurite Atlas

Http://www.gilhutcheson.com

High Low Average
Temperature 56.2°F13.4°C 35.2°F1.8°C 44.8°F7.1°C
Dew Point 32.4°F0.2°C 22.2°F-5.4°C 26.9°F-2.8°C
Winds 11.0 mph 17.7 kmh Calm Calm 3.0 mph SW4.8 kmh SW
Wind Gusts -- -- --
Humidity 73% 30% 51%
Pressure 29.82 in1009.8 mb 29.71 in1006.1 mb -
Precipitation 0.00 in0.0 mm - -
Hour Temp Dew Point Humidity Winds Wind Gusts Pressure Precip Precip Rate Daily Precip Total
12:04 AM 40.0°F4.4°C 31.5°F-0.3°C 72% Calm Calm -- 29.77 in1008.1 mb 0.00 in0.0 mm 0.00 in0.0 mm 0.00 in0.0 mm
12:09 AM 40.0°F4.4°C 31.9°F-0.1°C 73% 2.0 mph NNW3.2 kmh NNW -- 29.77 in1008.1 mb 0.00 in0.0 mm 0.00 in0.0 mm 0.00 in0.0 mm
12:14 AM 39.9°F4.4°C 31.5°F-0.3°C 72% 2.0 mph SW3.2 kmh SW -- 29.77 in1008.1 mb 0.00 in0.0 mm 0.00 in0.0 mm 0.00 in0.0 mm
12:19 AM 39.8°F4.3°C 31.3°F-0.4°C 72% 1.0 mph S1.6 kmh S -- 29.77 in1008.1 mb 0.00 in0.0 mm 0.00 in0.0 mm 0.00 in0.0 mm
12:24 AM 39.9°F4.4°C 31.5°F-0.3°C 72% 1.0 mph S1.6 kmh S -- 29.76 in1007.8 mb 0.00 in0.0 mm 0.00 in0.0 mm 0.00 in0.0 mm
12:29 AM 39.7°F4.3°C 31.3°F-0.4°C 72% Calm Calm -- 29.76 in1007.8 mb 0.00 in0.0 mm 0.00 in0.0 mm 0.00 in0.0 mm
12:34 AM 39.7°F4.3°C 31.0°F-0.6°C 71% 1.0 mph SSW1.6 kmh SSW -- 29.77 in1008.1 mb 0.00 in0.0 mm 0.00 in0.0 mm 0.00 in0.0 mm
12:39 AM 39.6°F4.2°C 30.8°F-0.7°C 71% 3.0 mph N4.8 kmh N -- 29.77 in1008.1 mb 0.00 in0.0 mm 0.00 in0.0 mm 0.00 in0.0 mm
12:44 AM 39.8°F4.3°C 31.0°F-0.6°C 71% 3.0 mph W4.8 kmh W -- 29.76 in1007.8 mb 0.00 in0.0 mm 0.00 in0.0 mm 0.00 in0.0 mm
12:49 AM 39.9°F4.4°C 31.2°F-0.4°C 71% 4.0 mph N6.4 kmh N -- 29.76 in1007.8 mb 0.00 in0.0 mm 0.00 in0.0 mm 0.00 in0.0 mm
12:54 AM 39.9°F4.4°C 31.5°F-0.3°C 72% 4.0 mph NW6.4 kmh NW -- 29.76 in1007.8 mb 0.00 in0.0 mm 0.00 in0.0 mm 0.00 in0.0 mm
12:59 AM 39.9°F4.4°C 31.2°F-0.4°C 71% 2.0 mph W3.2 kmh W -- 29.76 in1007.8 mb 0.00 in0.0 mm 0.00 in0.0 mm 0.00 in0.0 mm
01:04 AM 39.9°F4.4°C 31.2°F-0.4°C 71% 1.0 mph ENE1.6 kmh ENE -- 29.76 in1007.8 mb 0.00 in0.0 mm 0.00 in0.0 mm 0.00 in0.0 mm
01:09 AM 39.8°F4.3°C 30.6°F-0.8°C 70% 4.0 mph NNW6.4 kmh NNW -- 29.76 in1007.8 mb 0.00 in0.0 mm 0.00 in0.0 mm 0.00 in0.0 mm
01:14 AM 39.8°F4.3°C 30.6°F-0.8°C 70% 2.0 mph NNW3.2 kmh NNW -- 29.76 in1007.8 mb 0.00 in0.0 mm 0.00 in0.0 mm 0.00 in0.0 mm
01:19 AM 39.8°F4.3°C 30.6°F-0.8°C 70% 2.0 mph NE3.2 kmh NE -- 29.76 in1007.8 mb 0.00 in0.0 mm 0.00 in0.0 mm 0.00 in0.0 mm
01:24 AM 39.8°F4.3°C 30.6°F-0.8°C 70% 3.0 mph NW4.8 kmh NW -- 29.76 in1007.8 mb 0.00 in0.0 mm 0.00 in0.0 mm 0.00 in0.0 mm
01:29 AM 39.9°F4.4°C 31.2°F-0.4°C 71% 3.0 mph WNW4.8 kmh WNW -- 29.76 in1007.8 mb 0.00 in0.0 mm 0.00 in0.0 mm 0.00 in0.0 mm
01:34 AM 39.9°F4.4°C 31.2°F-0.4°C 71% 2.0 mph ENE3.2 kmh ENE -- 29.76 in1007.8 mb 0.00 in0.0 mm 0.00 in0.0 mm 0.00 in0.0 mm
01:39 AM 39.8°F4.3°C 30.6°F-0.8°C 70% 2.0 mph NW3.2 kmh NW -- 29.76 in1007.8 mb 0.00 in0.0 mm 0.00 in0.0 mm 0.00 in0.0 mm
01:44 AM 39.8°F4.3°C 30.3°F-0.9°C 69% 3.0 mph WNW4.8 kmh WNW -- 29.76 in1007.8 mb 0.00 in0.0 mm 0.00 in0.0 mm 0.00 in0.0 mm
01:49 AM 39.8°F4.3°C 30.6°F-0.8°C 70% 2.0 mph N3.2 kmh N -- 29.76 in1007.8 mb 0.00 in0.0 mm 0.00 in0.0 mm 0.00 in0.0 mm
01:54 AM 39.7°F4.3°C 30.6°F-0.8°C 70% 4.0 mph WNW6.4 kmh WNW -- 29.76 in1007.8 mb 0.00 in0.0 mm 0.00 in0.0 mm 0.00 in0.0 mm
01:59 AM 39.7°F4.3°C 30.6°F-0.8°C 70% 3.0 mph N4.8 kmh N -- 29.76 in1007.8 mb 0.00 in0.0 mm 0.00 in0.0 mm 0.00 in0.0 mm
02:04 AM 39.5°F4.2°C 30.5°F-0.8°C 70% 1.0 mph SSW1.6 kmh SSW -- 29.77 in1008.1 mb 0.00 in0.0 mm 0.00 in0.0 mm 0.00 in0.0 mm
02:09 AM 39.5°F4.2°C 30.5°F-0.8°C 70% 3.0 mph NNE4.8 kmh NNE -- 29.76 in1007.8 mb 0.00 in0.0 mm 0.00 in0.0 mm 0.00 in0.0 mm
02:14 AM 39.5°F4.2°C 30.5°F-0.8°C 70% 3.0 mph N4.8 kmh N -- 29.76 in1007.8 mb 0.00 in0.0 mm 0.00 in0.0 mm 0.00 in0.0 mm
02:19 AM 39.4°F4.1°C 30.3°F-0.9°C 70% 3.0 mph NE4.8 kmh NE -- 29.76 in1007.8 mb 0.00 in0.0 mm 0.00 in0.0 mm 0.00 in0.0 mm
02:24 AM 39.5°F4.2°C 30.5°F-0.8°C 70% 3.0 mph N4.8 kmh N -- 29.76 in1007.8 mb 0.00 in0.0 mm 0.00 in0.0 mm 0.00 in0.0 mm
02:29 AM 39.4°F4.1°C 30.3°F-0.9°C 70% 4.0 mph N6.4 kmh N -- 29.76 in1007.8 mb 0.00 in0.0 mm 0.00 in0.0 mm 0.00 in0.0 mm
02:34 AM 39.4°F4.1°C 30.3°F-0.9°C 70% 1.0 mph NW1.6 kmh NW -- 29.77 in1008.1 mb 0.00 in0.0 mm 0.00 in0.0 mm 0.00 in0.0 mm
02:39 AM 39.3°F4.1°C 29.9°F-1.2°C 69% 2.0 mph N3.2 kmh N -- 29.77 in1008.1 mb 0.00 in0.0 mm 0.00 in0.0 mm 0.00 in0.0 mm
02:44 AM 39.2°F4.0°C 29.8°F-1.2°C 69% 4.0 mph NW6.4 kmh NW -- 29.77 in1008.1 mb 0.00 in0.0 mm 0.00 in0.0 mm 0.00 in0.0 mm
02:49 AM 39.1°F3.9°C 29.2°F-1.6°C 68% 2.0 mph WNW3.2 kmh WNW -- 29.77 in1008.1 mb 0.00 in0.0 mm 0.00 in0.0 mm 0.00 in0.0 mm
02:54 AM 39.1°F3.9°C 28.9°F-1.7°C 67% 2.0 mph ENE3.2 kmh ENE -- 29.77 in1008.1 mb 0.00 in0.0 mm 0.00 in0.0 mm 0.00 in0.0 mm
02:59 AM 39.1°F3.9°C 28.9°F-1.7°C 67% 2.0 mph NE3.2 kmh NE -- 29.76 in1007.8 mb 0.00 in0.0 mm 0.00 in0.0 mm 0.00 in0.0 mm
03:04 AM 38.9°F3.8°C 28.7°F-1.8°C 67% 4.0 mph N6.4 kmh N -- 29.76 in1007.8 mb 0.00 in0.0 mm 0.00 in0.0 mm 0.00 in0.0 mm
03:09 AM 38.7°F3.7°C 28.9°F-1.7°C 68% 2.0 mph N3.2 kmh N -- 29.76 in1007.8 mb 0.00 in0.0 mm 0.00 in0.0 mm 0.00 in0.0 mm
03:14 AM 38.5°F3.6°C 28.0°F-2.2°C 66% 4.0 mph NW6.4 kmh NW -- 29.76 in1007.8 mb 0.00 in0.0 mm 0.00 in0.0 mm 0.00 in0.0 mm
03:19 AM 38.4°F3.6°C 27.6°F-2.4°C 65% 3.0 mph NW4.8 kmh NW -- 29.76 in1007.8 mb 0.00 in0.0 mm 0.00 in0.0 mm 0.00 in0.0 mm
03:24 AM 38.2°F3.4°C 27.6°F-2.4°C 66% 4.0 mph NNW6.4 kmh NNW -- 29.77 in1008.1 mb 0.00 in0.0 mm 0.00 in0.0 mm 0.00 in0.0 mm
03:29 AM 38.3°F3.5°C 27.4°F-2.6°C 65% 3.0 mph NNE4.8 kmh NNE -- 29.77 in1008.1 mb 0.00 in0.0 mm 0.00 in0.0 mm 0.00 in0.0 mm
03:34 AM 38.5°F3.6°C 27.2°F-2.7°C 64% 4.0 mph NNE6.4 kmh NNE -- 29.76 in1007.8 mb 0.00 in0.0 mm 0.00 in0.0 mm 0.00 in0.0 mm
03:39 AM 38.5°F3.6°C 26.4°F-3.1°C 62% 8.0 mph NNW12.9 kmh NNW -- 29.76 in1007.8 mb 0.00 in0.0 mm 0.00 in0.0 mm 0.00 in0.0 mm
03:44 AM 38.8°F3.8°C 25.6°F-3.6°C 59% 6.0 mph NE9.7 kmh NE -- 29.76 in1007.8 mb 0.00 in0.0 mm 0.00 in0.0 mm 0.00 in0.0 mm
03:49 AM 38.9°F3.8°C 24.3°F-4.3°C 56% 4.0 mph WSW6.4 kmh WSW -- 29.76 in1007.8 mb 0.00 in0.0 mm 0.00 in0.0 mm 0.00 in0.0 mm
03:54 AM 39.0°F3.9°C 24.0°F-4.4°C 55% 3.0 mph NE4.8 kmh NE -- 29.76 in1007.8 mb 0.00 in0.0 mm 0.00 in0.0 mm 0.00 in0.0 mm
03:59 AM 38.9°F3.8°C 22.5°F-5.3°C 52% 5.0 mph NNW8.0 kmh NNW -- 29.76 in1007.8 mb 0.00 in0.0 mm 0.00 in0.0 mm 0.00 in0.0 mm
04:04 AM 39.1°F3.9°C 22.2°F-5.4°C 51% 7.0 mph WNW11.3 kmh WNW -- 29.76 in1007.8 mb 0.00 in0.0 mm 0.00 in0.0 mm 0.00 in0.0 mm
04:09 AM 39.0°F3.9°C 22.7°F-5.2°C 52% 2.0 mph NNE3.2 kmh NNE -- 29.76 in1007.8 mb 0.00 in0.0 mm 0.00 in0.0 mm 0.00 in0.0 mm
04:14 AM 38.9°F3.8°C 22.5°F-5.3°C 52% 4.0 mph NW6.4 kmh NW -- 29.76 in1007.8 mb 0.00 in0.0 mm 0.00 in0.0 mm 0.00 in0.0 mm
04:19 AM 38.8°F3.8°C 23.0°F-5.0°C 53% 3.0 mph NW4.8 kmh NW -- 29.76 in1007.8 mb 0.00 in0.0 mm 0.00 in0.0 mm 0.00 in0.0 mm
04:24 AM 38.5°F3.6°C 22.7°F-5.2°C 53% 4.0 mph WNW6.4 kmh WNW -- 29.76 in1007.8 mb 0.00 in0.0 mm 0.00 in0.0 mm 0.00 in0.0 mm
04:29 AM 38.4°F3.6°C 22.2°F-5.4°C 52% 4.0 mph N6.4 kmh N -- 29.76 in1007.8 mb 0.00 in0.0 mm 0.00 in0.0 mm 0.00 in0.0 mm
04:34 AM 38.4°F3.6°C 23.1°F-4.9°C 54% 3.0 mph NNE4.8 kmh NNE -- 29.76 in1007.8 mb 0.00 in0.0 mm 0.00 in0.0 mm 0.00 in0.0 mm
04:39 AM 38.1°F3.4°C 22.8°F-5.1°C 54% 4.0 mph ENE6.4 kmh ENE -- 29.76 in1007.8 mb 0.00 in0.0 mm 0.00 in0.0 mm 0.00 in0.0 mm
04:44 AM 38.0°F3.3°C 22.6°F-5.2°C 54% 1.0 mph NNE1.6 kmh NNE -- 29.76 in1007.8 mb 0.00 in0.0 mm 0.00 in0.0 mm 0.00 in0.0 mm
04:49 AM 37.6°F3.1°C 23.1°F-4.9°C 56% 1.0 mph S1.6 kmh S -- 29.76 in1007.8 mb 0.00 in0.0 mm 0.00 in0.0 mm 0.00 in0.0 mm
04:54 AM 37.3°F2.9°C 22.8°F-5.1°C 56% 3.0 mph NW4.8 kmh NW -- 29.76 in1007.8 mb 0.00 in0.0 mm 0.00 in0.0 mm 0.00 in0.0 mm
04:59 AM 37.1°F2.8°C 22.6°F-5.2°C 56% 2.0 mph NW3.2 kmh NW -- 29.76 in1007.8 mb 0.00 in0.0 mm 0.00 in0.0 mm 0.00 in0.0 mm
05:04 AM 37.1°F2.8°C 23.1°F-4.9°C 57% 4.0 mph N6.4 kmh N -- 29.77 in1008.1 mb 0.00 in0.0 mm 0.00 in0.0 mm 0.00 in0.0 mm
05:09 AM 37.3°F2.9°C 22.8°F-5.1°C 56% 3.0 mph N4.8 kmh N -- 29.77 in1008.1 mb 0.00 in0.0 mm 0.00 in0.0 mm 0.00 in0.0 mm
05:14 AM 37.3°F2.9°C 22.4°F-5.3°C 55% 3.0 mph N4.8 kmh N -- 29.76 in1007.8 mb 0.00 in0.0 mm 0.00 in0.0 mm 0.00 in0.0 mm
05:19 AM 37.2°F2.9°C 22.8°F-5.1°C 56% 2.0 mph N3.2 kmh N -- 29.76 in1007.8 mb 0.00 in0.0 mm 0.00 in0.0 mm 0.00 in0.0 mm
05:24 AM 37.2°F2.9°C 23.2°F-4.9°C 57% 3.0 mph WNW4.8 kmh WNW -- 29.77 in1008.1 mb 0.00 in0.0 mm 0.00 in0.0 mm 0.00 in0.0 mm
05:29 AM 37.1°F2.8°C 22.6°F-5.2°C 56% 2.0 mph NNW3.2 kmh NNW -- 29.77 in1008.1 mb 0.00 in0.0 mm 0.00 in0.0 mm 0.00 in0.0 mm
05:34 AM 36.9°F2.7°C 22.9°F-5.1°C 57% 1.0 mph E1.6 kmh E -- 29.76 in1007.8 mb 0.00 in0.0 mm 0.00 in0.0 mm 0.00 in0.0 mm
05:39 AM 36.4°F2.4°C 23.2°F-4.9°C 59% 2.0 mph SW3.2 kmh SW -- 29.77 in1008.1 mb 0.00 in0.0 mm 0.00 in0.0 mm 0.00 in0.0 mm
05:44 AM 36.2°F2.3°C 22.2°F-5.4°C 57% Calm Calm -- 29.77 in1008.1 mb 0.00 in0.0 mm 0.00 in0.0 mm 0.00 in0.0 mm
05:49 AM 36.2°F2.3°C 22.6°F-5.2°C 58% Calm Calm -- 29.77 in1008.1 mb 0.00 in0.0 mm 0.00 in0.0 mm 0.00 in0.0 mm
05:54 AM 36.1°F2.3°C 22.6°F-5.2°C 58% 4.0 mph NW6.4 kmh NW -- 29.77 in1008.1 mb 0.00 in0.0 mm 0.00 in0.0 mm 0.00 in0.0 mm
05:59 AM 36.1°F2.3°C 22.2°F-5.4°C 57% 3.0 mph W4.8 kmh W -- 29.78 in1008.5 mb 0.00 in0.0 mm 0.00 in0.0 mm 0.00 in0.0 mm
06:04 AM 36.1°F2.3°C 22.2°F-5.4°C 57% 3.0 mph WNW4.8 kmh WNW -- 29.78 in1008.5 mb 0.00 in0.0 mm 0.00 in0.0 mm 0.00 in0.0 mm
06:09 AM 36.1°F2.3°C 22.6°F-5.2°C 58% 1.0 mph SSE1.6 kmh SSE -- 29.78 in1008.5 mb 0.00 in0.0 mm 0.00 in0.0 mm 0.00 in0.0 mm
06:14 AM 35.9°F2.2°C 22.5°F-5.3°C 58% 1.0 mph S1.6 kmh S -- 29.78 in1008.5 mb 0.00 in0.0 mm 0.00 in0.0 mm 0.00 in0.0 mm
06:19 AM 35.9°F2.2°C 22.5°F-5.3°C 58% 2.0 mph S3.2 kmh S -- 29.78 in1008.5 mb 0.00 in0.0 mm 0.00 in0.0 mm 0.00 in0.0 mm
06:24 AM 35.7°F2.1°C 22.7°F-5.2°C 59% Calm Calm -- 29.78 in1008.5 mb 0.00 in0.0 mm 0.00 in0.0 mm 0.00 in0.0 mm
06:29 AM 35.5°F1.9°C 22.4°F-5.3°C 59% Calm Calm -- 29.78 in1008.5 mb 0.00 in0.0 mm 0.00 in0.0 mm 0.00 in0.0 mm
06:34 AM 35.2°F1.8°C 22.6°F-5.2°C 60% 3.0 mph WSW4.8 kmh WSW -- 29.77 in1008.1 mb 0.00 in0.0 mm 0.00 in0.0 mm 0.00 in0.0 mm
06:39 AM 35.3°F1.8°C 22.6°F-5.2°C 60% 3.0 mph N4.8 kmh N -- 29.77 in1008.1 mb 0.00 in0.0 mm 0.00 in0.0 mm 0.00 in0.0 mm
06:44 AM 35.4°F1.9°C 23.2°F-4.9°C 61% 2.0 mph NE3.2 kmh NE -- 29.78 in1008.5 mb 0.00 in0.0 mm 0.00 in0.0 mm 0.00 in0.0 mm
06:49 AM 35.5°F1.9°C 23.2°F-4.9°C 61% 2.0 mph NNW3.2 kmh NNW -- 29.78 in1008.5 mb 0.00 in0.0 mm 0.00 in0.0 mm 0.00 in0.0 mm
06:54 AM 35.7°F2.1°C 23.1°F-4.9°C 60% 2.0 mph NW3.2 kmh NW -- 29.78 in1008.5 mb 0.00 in0.0 mm 0.00 in0.0 mm 0.00 in0.0 mm
06:59 AM 35.8°F2.1°C 23.5°F-4.7°C 61% 7.0 mph SW11.3 kmh SW -- 29.78 in1008.5 mb 0.00 in0.0 mm 0.00 in0.0 mm 0.00 in0.0 mm
07:04 AM 36.0°F2.2°C 23.7°F-4.6°C 61% 6.0 mph SE9.7 kmh SE -- 29.79 in1008.8 mb 0.00 in0.0 mm 0.00 in0.0 mm 0.00 in0.0 mm
07:09 AM 36.2°F2.3°C 23.8°F-4.6°C 61% 1.0 mph WSW1.6 kmh WSW -- 29.79 in1008.8 mb 0.00 in0.0 mm 0.00 in0.0 mm 0.00 in0.0 mm
07:14 AM 36.3°F2.4°C 24.0°F-4.4°C 61% 2.0 mph N3.2 kmh N -- 29.78 in1008.5 mb 0.00 in0.0 mm 0.00 in0.0 mm 0.00 in0.0 mm
07:19 AM 36.3°F2.4°C 24.4°F-4.2°C 62% 3.0 mph NW4.8 kmh NW -- 29.78 in1008.5 mb 0.00 in0.0 mm 0.00 in0.0 mm 0.00 in0.0 mm
07:24 AM 36.3°F2.4°C 24.4°F-4.2°C 62% 3.0 mph N4.8 kmh N -- 29.79 in1008.8 mb 0.00 in0.0 mm 0.00 in0.0 mm 0.00 in0.0 mm
07:29 AM 36.4°F2.4°C 24.4°F-4.2°C 62% 4.0 mph WNW6.4 kmh WNW -- 29.79 in1008.8 mb 0.00 in0.0 mm 0.00 in0.0 mm 0.00 in0.0 mm
07:34 AM 36.4°F2.4°C 24.4°F-4.2°C 62% 6.0 mph W9.7 kmh W -- 29.79 in1008.8 mb 0.00 in0.0 mm 0.00 in0.0 mm 0.00 in0.0 mm
07:39 AM 36.6°F2.6°C 25.1°F-3.8°C 63% 2.0 mph NW3.2 kmh NW -- 29.79 in1008.8 mb 0.00 in0.0 mm 0.00 in0.0 mm 0.00 in0.0 mm
07:44 AM 36.8°F2.7°C 25.3°F-3.7°C 63% 4.0 mph NNW6.4 kmh NNW -- 29.80 in1009.1 mb 0.00 in0.0 mm 0.00 in0.0 mm 0.00 in0.0 mm
07:49 AM 37.0°F2.8°C 25.5°F-3.6°C 63% 6.0 mph NW9.7 kmh NW -- 29.80 in1009.1 mb 0.00 in0.0 mm 0.00 in0.0 mm 0.00 in0.0 mm
07:54 AM 37.1°F2.8°C 25.1°F-3.8°C 62% 2.0 mph SW3.2 kmh SW -- 29.80 in1009.1 mb 0.00 in0.0 mm 0.00 in0.0 mm 0.00 in0.0 mm
07:59 AM 37.2°F2.9°C 25.6°F-3.6°C 63% 4.0 mph SSE6.4 kmh SSE -- 29.80 in1009.1 mb 0.00 in0.0 mm 0.00 in0.0 mm 0.00 in0.0 mm
08:04 AM 37.3°F2.9°C 25.6°F-3.6°C 63% Calm Calm -- 29.80 in1009.1 mb 0.00 in0.0 mm 0.00 in0.0 mm 0.00 in0.0 mm
08:09 AM 37.5°F3.1°C 25.6°F-3.6°C 62% 3.0 mph NNW4.8 kmh NNW -- 29.80 in1009.1 mb 0.00 in0.0 mm 0.00 in0.0 mm 0.00 in0.0 mm
08:14 AM 37.9°F3.3°C 25.9°F-3.4°C 62% 3.0 mph SW4.8 kmh SW -- 29.80 in1009.1 mb 0.00 in0.0 mm 0.00 in0.0 mm 0.00 in0.0 mm
08:19 AM 38.0°F3.3°C 25.5°F-3.6°C 61% 3.0 mph NNW4.8 kmh NNW -- 29.80 in1009.1 mb 0.00 in0.0 mm 0.00 in0.0 mm 0.00 in0.0 mm
08:24 AM 38.4°F3.6°C 26.1°F-3.3°C 61% 3.0 mph WSW4.8 kmh WSW -- 29.80 in1009.1 mb 0.00 in0.0 mm 0.00 in0.0 mm 0.00 in0.0 mm
08:29 AM 38.4°F3.6°C 26.1°F-3.3°C 61% 5.0 mph NW8.0 kmh NW -- 29.80 in1009.1 mb 0.00 in0.0 mm 0.00 in0.0 mm 0.00 in0.0 mm
08:34 AM 38.6°F3.7°C 25.8°F-3.4°C 60% 2.0 mph SW3.2 kmh SW -- 29.80 in1009.1 mb 0.00 in0.0 mm 0.00 in0.0 mm 0.00 in0.0 mm
08:39 AM 38.9°F3.8°C 26.0°F-3.3°C 60% 1.0 mph SW1.6 kmh SW -- 29.80 in1009.1 mb 0.00 in0.0 mm 0.00 in0.0 mm 0.00 in0.0 mm
08:44 AM 38.9°F3.8°C 25.6°F-3.6°C 59% 5.0 mph NW8.0 kmh NW -- 29.81 in1009.5 mb 0.00 in0.0 mm 0.00 in0.0 mm 0.00 in0.0 mm
08:49 AM 39.1°F3.9°C 26.2°F-3.2°C 60% 2.0 mph N3.2 kmh N -- 29.81 in1009.5 mb 0.00 in0.0 mm 0.00 in0.0 mm 0.00 in0.0 mm
08:54 AM 39.5°F4.2°C 26.3°F-3.2°C 59% 3.0 mph ENE4.8 kmh ENE -- 29.81 in1009.5 mb 0.00 in0.0 mm 0.00 in0.0 mm 0.00 in0.0 mm
08:59 AM 40.0°F4.4°C 26.2°F-3.2°C 58% 3.0 mph NE4.8 kmh NE -- 29.80 in1009.1 mb 0.00 in0.0 mm 0.00 in0.0 mm 0.00 in0.0 mm
09:04 AM 40.6°F4.8°C 26.4°F-3.1°C 57% 2.0 mph SW3.2 kmh SW -- 29.80 in1009.1 mb 0.00 in0.0 mm 0.00 in0.0 mm 0.00 in0.0 mm
09:09 AM 41.3°F5.2°C 27.1°F-2.7°C 57% 2.0 mph SSW3.2 kmh SSW -- 29.80 in1009.1 mb 0.00 in0.0 mm 0.00 in0.0 mm 0.00 in0.0 mm
09:14 AM 41.4°F5.2°C 26.7°F-2.9°C 56% 4.0 mph SW6.4 kmh SW -- 29.81 in1009.5 mb 0.00 in0.0 mm 0.00 in0.0 mm 0.00 in0.0 mm
09:19 AM 41.3°F5.2°C 26.7°F-2.9°C 56% 2.0 mph N3.2 kmh N -- 29.80 in1009.1 mb 0.00 in0.0 mm 0.00 in0.0 mm 0.00 in0.0 mm
09:24 AM 41.3°F5.2°C 26.2°F-3.2°C 55% 7.0 mph W11.3 kmh W -- 29.80 in1009.1 mb 0.00 in0.0 mm 0.00 in0.0 mm 0.00 in0.0 mm
09:29 AM 41.5°F5.3°C 26.8°F-2.9°C 56% 2.0 mph NW3.2 kmh NW -- 29.80 in1009.1 mb 0.00 in0.0 mm 0.00 in0.0 mm 0.00 in0.0 mm
09:34 AM 41.8°F5.4°C 27.0°F-2.8°C 56% 4.0 mph SW6.4 kmh SW -- 29.81 in1009.5 mb 0.00 in0.0 mm 0.00 in0.0 mm 0.00 in0.0 mm
09:39 AM 42.1°F5.6°C 27.8°F-2.3°C 57% 2.0 mph ESE3.2 kmh ESE -- 29.81 in1009.5 mb 0.00 in0.0 mm 0.00 in0.0 mm 0.00 in0.0 mm
09:44 AM 42.3°F5.7°C 27.5°F-2.5°C 56% 3.0 mph W4.8 kmh W -- 29.81 in1009.5 mb 0.00 in0.0 mm 0.00 in0.0 mm 0.00 in0.0 mm
09:49 AM 42.6°F5.9°C 28.3°F-2.1°C 57% 2.0 mph WSW3.2 kmh WSW -- 29.81 in1009.5 mb 0.00 in0.0 mm 0.00 in0.0 mm 0.00 in0.0 mm
09:54 AM 43.0°F6.1°C 28.2°F-2.1°C 56% 1.0 mph E1.6 kmh E -- 29.81 in1009.5 mb 0.00 in0.0 mm 0.00 in0.0 mm 0.00 in0.0 mm
09:59 AM 43.1°F6.2°C 28.4°F-2.0°C 56% 1.0 mph SE1.6 kmh SE -- 29.81 in1009.5 mb 0.00 in0.0 mm 0.00 in0.0 mm 0.00 in0.0 mm
10:04 AM 43.2°F6.2°C 29.2°F-1.6°C 58% 4.0 mph NW6.4 kmh NW -- 29.81 in1009.5 mb 0.00 in0.0 mm 0.00 in0.0 mm 0.00 in0.0 mm
10:09 AM 43.3°F6.3°C 28.5°F-1.9°C 56% 1.0 mph S1.6 kmh S -- 29.81 in1009.5 mb 0.00 in0.0 mm 0.00 in0.0 mm 0.00 in0.0 mm
10:14 AM 43.5°F6.4°C 28.7°F-1.8°C 56% 2.0 mph WSW3.2 kmh WSW -- 29.81 in1009.5 mb 0.00 in0.0 mm 0.00 in0.0 mm 0.00 in0.0 mm
10:19 AM 43.9°F6.6°C 29.5°F-1.4°C 57% 2.0 mph SSE3.2 kmh SSE -- 29.81 in1009.5 mb 0.00 in0.0 mm 0.00 in0.0 mm 0.00 in0.0 mm
10:24 AM 44.5°F6.9°C 28.6°F-1.9°C 54% 2.0 mph SSW3.2 kmh SSW -- 29.80 in1009.1 mb 0.00 in0.0 mm 0.00 in0.0 mm 0.00 in0.0 mm
10:29 AM 45.7°F7.6°C 29.4°F-1.4°C 53% 4.0 mph NNE6.4 kmh NNE -- 29.80 in1009.1 mb 0.00 in0.0 mm 0.00 in0.0 mm 0.00 in0.0 mm
10:34 AM 45.9°F7.7°C 29.5°F-1.4°C 53% 2.0 mph SSW3.2 kmh SSW -- 29.80 in1009.1 mb 0.00 in0.0 mm 0.00 in0.0 mm 0.00 in0.0 mm
10:39 AM 45.9°F7.7°C 29.5°F-1.4°C 53% 7.0 mph SW11.3 kmh SW -- 29.80 in1009.1 mb 0.00 in0.0 mm 0.00 in0.0 mm 0.00 in0.0 mm
10:44 AM 46.1°F7.8°C 29.2°F-1.6°C 52% 6.0 mph N9.7 kmh N -- 29.80 in1009.1 mb 0.00 in0.0 mm 0.00 in0.0 mm 0.00 in0.0 mm
10:49 AM 46.3°F7.9°C 29.4°F-1.4°C 52% 1.0 mph S1.6 kmh S -- 29.80 in1009.1 mb 0.00 in0.0 mm 0.00 in0.0 mm 0.00 in0.0 mm
10:54 AM 46.8°F8.2°C 29.4°F-1.4°C 51% 9.0 mph W14.5 kmh W -- 29.80 in1009.1 mb 0.00 in0.0 mm 0.00 in0.0 mm 0.00 in0.0 mm
11:09 AM 48.9°F9.4°C 30.4°F-0.9°C 49% 2.0 mph W3.2 kmh W -- 29.79 in1008.8 mb 0.00 in0.0 mm 0.00 in0.0 mm 0.00 in0.0 mm
11:14 AM 48.5°F9.2°C 30.1°F-1.1°C 49% 4.0 mph WNW6.4 kmh WNW -- 29.79 in1008.8 mb 0.00 in0.0 mm 0.00 in0.0 mm 0.00 in0.0 mm
11:19 AM 49.4°F9.7°C 29.4°F-1.4°C 46% 7.0 mph WSW11.3 kmh WSW -- 29.79 in1008.8 mb 0.00 in0.0 mm 0.00 in0.0 mm 0.00 in0.0 mm
11:24 AM 49.5°F9.7°C 29.9°F-1.2°C 47% 3.0 mph NE4.8 kmh NE -- 29.78 in1008.5 mb 0.00 in0.0 mm 0.00 in0.0 mm 0.00 in0.0 mm
11:29 AM 49.6°F9.8°C 29.5°F-1.4°C 46% 3.0 mph SSE4.8 kmh SSE -- 29.78 in1008.5 mb 0.00 in0.0 mm 0.00 in0.0 mm 0.00 in0.0 mm
11:34 AM 49.5°F9.7°C 29.9°F-1.2°C 47% 1.0 mph S1.6 kmh S -- 29.78 in1008.5 mb 0.00 in0.0 mm 0.00 in0.0 mm 0.00 in0.0 mm
11:39 AM 49.5°F9.7°C 29.9°F-1.2°C 47% 2.0 mph NW3.2 kmh NW -- 29.78 in1008.5 mb 0.00 in0.0 mm 0.00 in0.0 mm 0.00 in0.0 mm
11:44 AM 49.6°F9.8°C 30.6°F-0.8°C 48% 3.0 mph SW4.8 kmh SW -- 29.77 in1008.1 mb 0.00 in0.0 mm 0.00 in0.0 mm 0.00 in0.0 mm
11:49 AM 50.7°F10.4°C 30.5°F-0.8°C 46% 4.0 mph NNW6.4 kmh NNW -- 29.77 in1008.1 mb 0.00 in0.0 mm 0.00 in0.0 mm 0.00 in0.0 mm
11:54 AM 50.8°F10.4°C 31.0°F-0.6°C 47% 4.0 mph SE6.4 kmh SE -- 29.76 in1007.8 mb 0.00 in0.0 mm 0.00 in0.0 mm 0.00 in0.0 mm
11:59 AM 51.0°F10.6°C 30.3°F-0.9°C 45% 8.0 mph WSW12.9 kmh WSW -- 29.76 in1007.8 mb 0.00 in0.0 mm 0.00 in0.0 mm 0.00 in0.0 mm
12:04 PM 51.5°F10.8°C 30.6°F-0.8°C 45% 5.0 mph NNW8.0 kmh NNW -- 29.76 in1007.8 mb 0.00 in0.0 mm 0.00 in0.0 mm 0.00 in0.0 mm
12:09 PM 52.1°F11.2°C 32.4°F0.2°C 47% 8.0 mph NNW12.9 kmh NNW -- 29.75 in1007.5 mb 0.00 in0.0 mm 0.00 in0.0 mm 0.00 in0.0 mm
12:14 PM 52.2°F11.2°C 30.2°F-1.0°C 43% 7.0 mph NW11.3 kmh NW -- 29.75 in1007.5 mb 0.00 in0.0 mm 0.00 in0.0 mm 0.00 in0.0 mm
12:19 PM 52.1°F11.2°C 30.2°F-1.0°C 43% 6.0 mph SW9.7 kmh SW -- 29.74 in1007.1 mb 0.00 in0.0 mm 0.00 in0.0 mm 0.00 in0.0 mm
12:24 PM 53.6°F12.0°C 32.0°F0.0°C 44% 4.0 mph WNW6.4 kmh WNW -- 29.74 in1007.1 mb 0.00 in0.0 mm 0.00 in0.0 mm 0.00 in0.0 mm
12:29 PM 52.0°F11.1°C 29.4°F-1.4°C 42% 2.0 mph SW3.2 kmh SW -- 29.74 in1007.1 mb 0.00 in0.0 mm 0.00 in0.0 mm 0.00 in0.0 mm
12:34 PM 52.0°F11.1°C 30.0°F-1.1°C 43% 3.0 mph NNW4.8 kmh NNW -- 29.73 in1006.8 mb 0.00 in0.0 mm 0.00 in0.0 mm 0.00 in0.0 mm
12:39 PM 52.7°F11.5°C 30.1°F-1.1°C 42% 5.0 mph NW8.0 kmh NW -- 29.74 in1007.1 mb 0.00 in0.0 mm 0.00 in0.0 mm 0.00 in0.0 mm
12:44 PM 53.1°F11.7°C 30.4°F-0.9°C 42% 9.0 mph SSW14.5 kmh SSW -- 29.73 in1006.8 mb 0.00 in0.0 mm 0.00 in0.0 mm 0.00 in0.0 mm
12:49 PM 53.2°F11.8°C 30.6°F-0.8°C 42% 6.0 mph SW9.7 kmh SW -- 29.73 in1006.8 mb 0.00 in0.0 mm 0.00 in0.0 mm 0.00 in0.0 mm
12:54 PM 52.9°F11.6°C 30.2°F-1.0°C 42% 3.0 mph S4.8 kmh S -- 29.73 in1006.8 mb 0.00 in0.0 mm 0.00 in0.0 mm 0.00 in0.0 mm
12:59 PM 53.1°F11.7°C 29.8°F-1.2°C 41% 8.0 mph WSW12.9 kmh WSW -- 29.73 in1006.8 mb 0.00 in0.0 mm 0.00 in0.0 mm 0.00 in0.0 mm
01:09 PM 53.1°F11.7°C 30.4°F-0.9°C 42% 11.0 mph NW17.7 kmh NW -- 29.72 in1006.4 mb 0.00 in0.0 mm 0.00 in0.0 mm 0.00 in0.0 mm
01:14 PM 53.2°F11.8°C 31.1°F-0.5°C 43% 2.0 mph S3.2 kmh S -- 29.72 in1006.4 mb 0.00 in0.0 mm 0.00 in0.0 mm 0.00 in0.0 mm
01:19 PM 53.5°F11.9°C 30.1°F-1.1°C 41% 4.0 mph S6.4 kmh S -- 29.71 in1006.1 mb 0.00 in0.0 mm 0.00 in0.0 mm 0.00 in0.0 mm
01:24 PM 54.8°F12.7°C 30.8°F-0.7°C 40% 4.0 mph SW6.4 kmh SW -- 29.72 in1006.4 mb 0.00 in0.0 mm 0.00 in0.0 mm 0.00 in0.0 mm
01:29 PM 54.4°F12.4°C 31.5°F-0.3°C 42% 4.0 mph SW6.4 kmh SW -- 29.72 in1006.4 mb 0.00 in0.0 mm 0.00 in0.0 mm 0.00 in0.0 mm
01:34 PM 53.9°F12.2°C 31.2°F-0.4°C 42% 3.0 mph S4.8 kmh S -- 29.71 in1006.1 mb 0.00 in0.0 mm 0.00 in0.0 mm 0.00 in0.0 mm
01:39 PM 53.7°F12.1°C 31.0°F-0.6°C 42% 3.0 mph WSW4.8 kmh WSW -- 29.71 in1006.1 mb 0.00 in0.0 mm 0.00 in0.0 mm 0.00 in0.0 mm
01:44 PM 54.0°F12.2°C 30.6°F-0.8°C 41% 5.0 mph SSW8.0 kmh SSW -- 29.71 in1006.1 mb 0.00 in0.0 mm 0.00 in0.0 mm 0.00 in0.0 mm
01:49 PM 53.5°F11.9°C 30.7°F-0.7°C 42% 6.0 mph WSW9.7 kmh WSW -- 29.71 in1006.1 mb 0.00 in0.0 mm 0.00 in0.0 mm 0.00 in0.0 mm
01:54 PM 54.1°F12.3°C 31.4°F-0.3°C 42% 8.0 mph S12.9 kmh S -- 29.71 in1006.1 mb 0.00 in0.0 mm 0.00 in0.0 mm 0.00 in0.0 mm
01:59 PM 53.9°F12.2°C 30.6°F-0.8°C 41% 8.0 mph SSW12.9 kmh SSW -- 29.71 in1006.1 mb 0.00 in0.0 mm 0.00 in0.0 mm 0.00 in0.0 mm
02:04 PM 53.9°F12.2°C 30.6°F-0.8°C 41% 8.0 mph SSW12.9 kmh SSW -- 29.71 in1006.1 mb 0.00 in0.0 mm 0.00 in0.0 mm 0.00 in0.0 mm
02:09 PM 54.0°F12.2°C 30.6°F-0.8°C 41% 7.0 mph N11.3 kmh N -- 29.71 in1006.1 mb 0.00 in0.0 mm 0.00 in0.0 mm 0.00 in0.0 mm
02:14 PM 54.3°F12.4°C 30.9°F-0.6°C 41% 2.0 mph WSW3.2 kmh WSW -- 29.71 in1006.1 mb 0.00 in0.0 mm 0.00 in0.0 mm 0.00 in0.0 mm
02:19 PM 54.6°F12.6°C 31.3°F-0.4°C 41% 5.0 mph S8.0 kmh S -- 29.71 in1006.1 mb 0.00 in0.0 mm 0.00 in0.0 mm 0.00 in0.0 mm
02:24 PM 54.8°F12.7°C 30.8°F-0.7°C 40% 3.0 mph WSW4.8 kmh WSW -- 29.71 in1006.1 mb 0.00 in0.0 mm 0.00 in0.0 mm 0.00 in0.0 mm
02:28 PM 55.0°F12.8°C 30.4°F-0.9°C 39% 2.0 mph S3.2 kmh S -- 29.71 in1006.1 mb 0.00 in0.0 mm 0.00 in0.0 mm 0.00 in0.0 mm
02:34 PM 55.1°F12.8°C 31.0°F-0.6°C 40% 4.0 mph NNE6.4 kmh NNE -- 29.71 in1006.1 mb 0.00 in0.0 mm 0.00 in0.0 mm 0.00 in0.0 mm
02:39 PM 55.1°F12.8°C 30.4°F-0.9°C 39% 3.0 mph WNW4.8 kmh WNW -- 29.71 in1006.1 mb 0.00 in0.0 mm 0.00 in0.0 mm 0.00 in0.0 mm
02:44 PM 55.2°F12.9°C 30.5°F-0.8°C 39% 8.0 mph SW12.9 kmh SW -- 29.72 in1006.4 mb 0.00 in0.0 mm 0.00 in0.0 mm 0.00 in0.0 mm
02:49 PM 55.2°F12.9°C 30.5°F-0.8°C 39% 8.0 mph NNE12.9 kmh NNE -- 29.72 in1006.4 mb 0.00 in0.0 mm 0.00 in0.0 mm 0.00 in0.0 mm
02:54 PM 55.6°F13.1°C 31.5°F-0.3°C 40% 4.0 mph NW6.4 kmh NW -- 29.72 in1006.4 mb 0.00 in0.0 mm 0.00 in0.0 mm 0.00 in0.0 mm
02:59 PM 55.4°F13.0°C 31.3°F-0.4°C 40% 3.0 mph NW4.8 kmh NW -- 29.72 in1006.4 mb 0.00 in0.0 mm 0.00 in0.0 mm 0.00 in0.0 mm
03:04 PM 55.5°F13.1°C 31.5°F-0.3°C 40% 2.0 mph SW3.2 kmh SW -- 29.72 in1006.4 mb 0.00 in0.0 mm 0.00 in0.0 mm 0.00 in0.0 mm
03:09 PM 55.7°F13.2°C 30.4°F-0.9°C 38% 7.0 mph NW11.3 kmh NW -- 29.72 in1006.4 mb 0.00 in0.0 mm 0.00 in0.0 mm 0.00 in0.0 mm
03:14 PM 55.6°F13.1°C 30.8°F-0.7°C 39% 6.0 mph W9.7 kmh W -- 29.72 in1006.4 mb 0.00 in0.0 mm 0.00 in0.0 mm 0.00 in0.0 mm
03:24 PM 55.8°F13.2°C 29.7°F-1.3°C 37% 6.0 mph NNE9.7 kmh NNE -- 29.72 in1006.4 mb 0.00 in0.0 mm 0.00 in0.0 mm 0.00 in0.0 mm
03:29 PM 56.0°F13.3°C 30.5°F-0.8°C 38% 6.0 mph W9.7 kmh W -- 29.72 in1006.4 mb 0.00 in0.0 mm 0.00 in0.0 mm 0.00 in0.0 mm
03:34 PM 56.0°F13.3°C 31.2°F-0.4°C 39% 3.0 mph SSW4.8 kmh SSW -- 29.72 in1006.4 mb 0.00 in0.0 mm 0.00 in0.0 mm 0.00 in0.0 mm
03:44 PM 56.1°F13.4°C 30.0°F-1.1°C 37% 5.0 mph N8.0 kmh N -- 29.72 in1006.4 mb 0.00 in0.0 mm 0.00 in0.0 mm 0.00 in0.0 mm
03:49 PM 56.2°F13.4°C 25.7°F-3.5°C 31% 6.0 mph N9.7 kmh N -- 29.72 in1006.4 mb 0.00 in0.0 mm 0.00 in0.0 mm 0.00 in0.0 mm
03:54 PM 56.2°F13.4°C 26.5°F-3.1°C 32% 4.0 mph WSW6.4 kmh WSW -- 29.72 in1006.4 mb 0.00 in0.0 mm 0.00 in0.0 mm 0.00 in0.0 mm
03:59 PM 56.1°F13.4°C 24.9°F-3.9°C 30% 5.0 mph NW8.0 kmh NW -- 29.72 in1006.4 mb 0.00 in0.0 mm 0.00 in0.0 mm 0.00 in0.0 mm
04:09 PM 56.2°F13.4°C 24.9°F-3.9°C 30% 6.0 mph N9.7 kmh N -- 29.73 in1006.8 mb 0.00 in0.0 mm 0.00 in0.0 mm 0.00 in0.0 mm
04:14 PM 56.0°F13.3°C 24.8°F-4.0°C 30% 8.0 mph WNW12.9 kmh WNW -- 29.73 in1006.8 mb 0.00 in0.0 mm 0.00 in0.0 mm 0.00 in0.0 mm
04:19 PM 56.0°F13.3°C 25.6°F-3.6°C 31% 4.0 mph WSW6.4 kmh WSW -- 29.73 in1006.8 mb 0.00 in0.0 mm 0.00 in0.0 mm 0.00 in0.0 mm
04:24 PM 55.5°F13.1°C 25.2°F-3.8°C 31% 8.0 mph NW12.9 kmh NW -- 29.73 in1006.8 mb 0.00 in0.0 mm 0.00 in0.0 mm 0.00 in0.0 mm
04:29 PM 55.6°F13.1°C 25.2°F-3.8°C 31% 4.0 mph NNW6.4 kmh NNW -- 29.73 in1006.8 mb 0.00 in0.0 mm 0.00 in0.0 mm 0.00 in0.0 mm
04:34 PM 55.2°F12.9°C 24.9°F-3.9°C 31% 8.0 mph SW12.9 kmh SW -- 29.73 in1006.8 mb 0.00 in0.0 mm 0.00 in0.0 mm 0.00 in0.0 mm
04:39 PM 55.0°F12.8°C 24.8°F-4.0°C 31% 6.0 mph NW9.7 kmh NW -- 29.73 in1006.8 mb 0.00 in0.0 mm 0.00 in0.0 mm 0.00 in0.0 mm
04:44 PM 54.7°F12.6°C 25.2°F-3.8°C 32% 6.0 mph NNW9.7 kmh NNW -- 29.74 in1007.1 mb 0.00 in0.0 mm 0.00 in0.0 mm 0.00 in0.0 mm
04:49 PM 54.6°F12.6°C 25.2°F-3.8°C 32% 7.0 mph NW11.3 kmh NW -- 29.74 in1007.1 mb 0.00 in0.0 mm 0.00 in0.0 mm 0.00 in0.0 mm
04:54 PM 54.4°F12.4°C 24.9°F-3.9°C 32% 7.0 mph NW11.3 kmh NW -- 29.74 in1007.1 mb 0.00 in0.0 mm 0.00 in0.0 mm 0.00 in0.0 mm
04:59 PM 54.5°F12.5°C 24.3°F-4.3°C 31% 9.0 mph NW14.5 kmh NW -- 29.74 in1007.1 mb 0.00 in0.0 mm 0.00 in0.0 mm 0.00 in0.0 mm
05:04 PM 54.2°F12.3°C 24.0°F-4.4°C 31% 4.0 mph NW6.4 kmh NW -- 29.74 in1007.1 mb 0.00 in0.0 mm 0.00 in0.0 mm 0.00 in0.0 mm
05:09 PM 53.9°F12.2°C 24.6°F-4.1°C 32% 7.0 mph SW11.3 kmh SW -- 29.75 in1007.5 mb 0.00 in0.0 mm 0.00 in0.0 mm 0.00 in0.0 mm
05:14 PM 53.7°F12.1°C 24.4°F-4.2°C 32% 7.0 mph NW11.3 kmh NW -- 29.75 in1007.5 mb 0.00 in0.0 mm 0.00 in0.0 mm 0.00 in0.0 mm
05:19 PM 53.5°F11.9°C 24.1°F-4.4°C 32% 7.0 mph NNW11.3 kmh NNW -- 29.75 in1007.5 mb 0.00 in0.0 mm 0.00 in0.0 mm 0.00 in0.0 mm
05:24 PM 53.5°F11.9°C 24.8°F-4.0°C 33% 3.0 mph NW4.8 kmh NW -- 29.75 in1007.5 mb 0.00 in0.0 mm 0.00 in0.0 mm 0.00 in0.0 mm
05:29 PM 53.1°F11.7°C 24.5°F-4.2°C 33% 7.0 mph WNW11.3 kmh WNW -- 29.75 in1007.5 mb 0.00 in0.0 mm 0.00 in0.0 mm 0.00 in0.0 mm
05:34 PM 53.0°F11.7°C 24.5°F-4.2°C 33% 4.0 mph WNW6.4 kmh WNW -- 29.75 in1007.5 mb 0.00 in0.0 mm 0.00 in0.0 mm 0.00 in0.0 mm
05:39 PM 52.7°F11.5°C 24.9°F-3.9°C 34% 4.0 mph N6.4 kmh N -- 29.76 in1007.8 mb 0.00 in0.0 mm 0.00 in0.0 mm 0.00 in0.0 mm
05:44 PM 52.5°F11.4°C 25.5°F-3.6°C 35% 2.0 mph NW3.2 kmh NW -- 29.76 in1007.8 mb 0.00 in0.0 mm 0.00 in0.0 mm 0.00 in0.0 mm
05:49 PM 51.9°F11.1°C 24.3°F-4.3°C 34% 3.0 mph NNE4.8 kmh NNE -- 29.76 in1007.8 mb 0.00 in0.0 mm 0.00 in0.0 mm 0.00 in0.0 mm
05:54 PM 51.6°F10.9°C 24.7°F-4.1°C 35% 2.0 mph N3.2 kmh N -- 29.77 in1008.1 mb 0.00 in0.0 mm 0.00 in0.0 mm 0.00 in0.0 mm
05:59 PM 51.5°F10.8°C 24.5°F-4.2°C 35% 2.0 mph SW3.2 kmh SW -- 29.77 in1008.1 mb 0.00 in0.0 mm 0.00 in0.0 mm 0.00 in0.0 mm
06:04 PM 51.2°F10.7°C 24.3°F-4.3°C 35% 4.0 mph NW6.4 kmh NW -- 29.78 in1008.5 mb 0.00 in0.0 mm 0.00 in0.0 mm 0.00 in0.0 mm
06:09 PM 50.8°F10.4°C 25.2°F-3.8°C 37% 2.0 mph N3.2 kmh N -- 29.78 in1008.5 mb 0.00 in0.0 mm 0.00 in0.0 mm 0.00 in0.0 mm
06:13 PM 50.1°F10.1°C 25.3°F-3.7°C 38% 1.0 mph NW1.6 kmh NW -- 29.78 in1008.5 mb 0.00 in0.0 mm 0.00 in0.0 mm 0.00 in0.0 mm
06:19 PM 49.4°F9.7°C 25.3°F-3.7°C 39% 2.0 mph N3.2 kmh N -- 29.78 in1008.5 mb 0.00 in0.0 mm 0.00 in0.0 mm 0.00 in0.0 mm
06:24 PM 49.3°F9.6°C 25.8°F-3.4°C 40% 3.0 mph E4.8 kmh E -- 29.78 in1008.5 mb 0.00 in0.0 mm 0.00 in0.0 mm 0.00 in0.0 mm
06:29 PM 49.1°F9.5°C 25.6°F-3.6°C 40% 3.0 mph N4.8 kmh N -- 29.78 in1008.5 mb 0.00 in0.0 mm 0.00 in0.0 mm 0.00 in0.0 mm
06:34 PM 49.0°F9.4°C 25.5°F-3.6°C 40% 3.0 mph NE4.8 kmh NE -- 29.78 in1008.5 mb 0.00 in0.0 mm 0.00 in0.0 mm 0.00 in0.0 mm
06:39 PM 48.8°F9.3°C 25.3°F-3.7°C 40% 8.0 mph NW12.9 kmh NW -- 29.78 in1008.5 mb 0.00 in0.0 mm 0.00 in0.0 mm 0.00 in0.0 mm
06:44 PM 49.0°F9.4°C 25.5°F-3.6°C 40% 4.0 mph NE6.4 kmh NE -- 29.78 in1008.5 mb 0.00 in0.0 mm 0.00 in0.0 mm 0.00 in0.0 mm
06:49 PM 49.1°F9.5°C 25.0°F-3.9°C 39% 4.0 mph NNW6.4 kmh NNW -- 29.79 in1008.8 mb 0.00 in0.0 mm 0.00 in0.0 mm 0.00 in0.0 mm
06:54 PM 49.0°F9.4°C 25.5°F-3.6°C 40% 3.0 mph NNE4.8 kmh NNE -- 29.79 in1008.8 mb 0.00 in0.0 mm 0.00 in0.0 mm 0.00 in0.0 mm
06:59 PM 48.6°F9.2°C 26.3°F-3.2°C 42% 2.0 mph NNW3.2 kmh NNW -- 29.79 in1008.8 mb 0.00 in0.0 mm 0.00 in0.0 mm 0.00 in0.0 mm
07:04 PM 48.5°F9.2°C 25.7°F-3.5°C 41% 4.0 mph NW6.4 kmh NW -- 29.79 in1008.8 mb 0.00 in0.0 mm 0.00 in0.0 mm 0.00 in0.0 mm
07:09 PM 48.3°F9.1°C 26.7°F-2.9°C 43% 5.0 mph NNE8.0 kmh NNE -- 29.79 in1008.8 mb 0.00 in0.0 mm 0.00 in0.0 mm 0.00 in0.0 mm
07:14 PM 48.1°F8.9°C 25.2°F-3.8°C 41% 4.0 mph W6.4 kmh W -- 29.79 in1008.8 mb 0.00 in0.0 mm 0.00 in0.0 mm 0.00 in0.0 mm
07:19 PM 47.8°F8.8°C 25.7°F-3.5°C 42% 2.0 mph N3.2 kmh N -- 29.80 in1009.1 mb 0.00 in0.0 mm 0.00 in0.0 mm 0.00 in0.0 mm
07:24 PM 47.7°F8.7°C 25.5°F-3.6°C 42% 4.0 mph NNW6.4 kmh NNW -- 29.79 in1008.8 mb 0.00 in0.0 mm 0.00 in0.0 mm 0.00 in0.0 mm
07:28 PM 47.1°F8.4°C 26.1°F-3.3°C 44% 2.0 mph W3.2 kmh W -- 29.80 in1009.1 mb 0.00 in0.0 mm 0.00 in0.0 mm 0.00 in0.0 mm
07:34 PM 46.7°F8.2°C 25.8°F-3.4°C 44% 2.0 mph NW3.2 kmh NW -- 29.80 in1009.1 mb 0.00 in0.0 mm 0.00 in0.0 mm 0.00 in0.0 mm
07:39 PM 46.4°F8.0°C 25.5°F-3.6°C 44% 2.0 mph NE3.2 kmh NE -- 29.80 in1009.1 mb 0.00 in0.0 mm 0.00 in0.0 mm 0.00 in0.0 mm
07:43 PM 45.9°F7.7°C 25.5°F-3.6°C 45% 2.0 mph NE3.2 kmh NE -- 29.80 in1009.1 mb 0.00 in0.0 mm 0.00 in0.0 mm 0.00 in0.0 mm
07:44 PM 45.9°F7.7°C 25.5°F-3.6°C 45% 2.0 mph WNW3.2 kmh WNW -- 29.80 in1009.1 mb 0.00 in0.0 mm 0.00 in0.0 mm 0.00 in0.0 mm
07:49 PM 45.6°F7.6°C 25.4°F-3.7°C 45% 2.0 mph N3.2 kmh N -- 29.80 in1009.1 mb 0.00 in0.0 mm 0.00 in0.0 mm 0.00 in0.0 mm
07:54 PM 45.3°F7.4°C 25.0°F-3.9°C 45% 1.0 mph ENE1.6 kmh ENE -- 29.80 in1009.1 mb 0.00 in0.0 mm 0.00 in0.0 mm 0.00 in0.0 mm
07:59 PM 44.9°F7.2°C 25.2°F-3.8°C 46% 1.0 mph W1.6 kmh W -- 29.79 in1008.8 mb 0.00 in0.0 mm 0.00 in0.0 mm 0.00 in0.0 mm
08:03 PM 44.6°F7.0°C 24.9°F-3.9°C 46% 1.0 mph SW1.6 kmh SW -- 29.80 in1009.1 mb 0.00 in0.0 mm 0.00 in0.0 mm 0.00 in0.0 mm
08:09 PM 44.4°F6.9°C 24.7°F-4.1°C 46% Calm Calm -- 29.80 in1009.1 mb 0.00 in0.0 mm 0.00 in0.0 mm 0.00 in0.0 mm
08:14 PM 44.1°F6.7°C 24.4°F-4.2°C 46% 1.0 mph SSW1.6 kmh SSW -- 29.80 in1009.1 mb 0.00 in0.0 mm 0.00 in0.0 mm 0.00 in0.0 mm
08:19 PM 44.0°F6.7°C 24.4°F-4.2°C 46% Calm Calm -- 29.80 in1009.1 mb 0.00 in0.0 mm 0.00 in0.0 mm 0.00 in0.0 mm
08:24 PM 44.0°F6.7°C 24.4°F-4.2°C 46% 2.0 mph WSW3.2 kmh WSW -- 29.80 in1009.1 mb 0.00 in0.0 mm 0.00 in0.0 mm 0.00 in0.0 mm
08:29 PM 44.1°F6.7°C 25.4°F-3.7°C 48% 1.0 mph SSW1.6 kmh SSW -- 29.80 in1009.1 mb 0.00 in0.0 mm 0.00 in0.0 mm 0.00 in0.0 mm
08:34 PM 43.9°F6.6°C 24.8°F-4.0°C 47% Calm Calm -- 29.80 in1009.1 mb 0.00 in0.0 mm 0.00 in0.0 mm 0.00 in0.0 mm
08:39 PM 44.0°F6.7°C 24.4°F-4.2°C 46% Calm Calm -- 29.80 in1009.1 mb 0.00 in0.0 mm 0.00 in0.0 mm 0.00 in0.0 mm
08:44 PM 44.0°F6.7°C 24.9°F-3.9°C 47% 3.0 mph SSW4.8 kmh SSW -- 29.80 in1009.1 mb 0.00 in0.0 mm 0.00 in0.0 mm 0.00 in0.0 mm
08:49 PM 44.1°F6.7°C 24.9°F-3.9°C 47% 2.0 mph S3.2 kmh S -- 29.80 in1009.1 mb 0.00 in0.0 mm 0.00 in0.0 mm 0.00 in0.0 mm
08:54 PM 44.1°F6.7°C 24.9°F-3.9°C 47% Calm Calm -- 29.80 in1009.1 mb 0.00 in0.0 mm 0.00 in0.0 mm 0.00 in0.0 mm
08:59 PM 44.0°F6.7°C 24.9°F-3.9°C 47% 2.0 mph S3.2 kmh S -- 29.80 in1009.1 mb 0.00 in0.0 mm 0.00 in0.0 mm 0.00 in0.0 mm
09:04 PM 43.8°F6.6°C 25.3°F-3.7°C 48% 1.0 mph WNW1.6 kmh WNW -- 29.80 in1009.1 mb 0.00 in0.0 mm 0.00 in0.0 mm 0.00 in0.0 mm
09:09 PM 43.4°F6.3°C 24.3°F-4.3°C 47% Calm Calm -- 29.80 in1009.1 mb 0.00 in0.0 mm 0.00 in0.0 mm 0.00 in0.0 mm
09:14 PM 43.2°F6.2°C 24.6°F-4.1°C 48% Calm Calm -- 29.80 in1009.1 mb 0.00 in0.0 mm 0.00 in0.0 mm 0.00 in0.0 mm
09:24 PM 42.6°F5.9°C 24.6°F-4.1°C 49% 1.0 mph W1.6 kmh W -- 29.81 in1009.5 mb 0.00 in0.0 mm 0.00 in0.0 mm 0.00 in0.0 mm
09:29 PM 42.5°F5.8°C 23.9°F-4.5°C 48% 1.0 mph SW1.6 kmh SW -- 29.81 in1009.5 mb 0.00 in0.0 mm 0.00 in0.0 mm 0.00 in0.0 mm
09:33 PM 42.5°F5.8°C 24.9°F-3.9°C 50% 3.0 mph S4.8 kmh S -- 29.81 in1009.5 mb 0.00 in0.0 mm 0.00 in0.0 mm 0.00 in0.0 mm
09:39 PM 42.4°F5.8°C 24.9°F-3.9°C 50% 2.0 mph SSW3.2 kmh SSW -- 29.81 in1009.5 mb 0.00 in0.0 mm 0.00 in0.0 mm 0.00 in0.0 mm
09:48 PM 42.5°F5.8°C 24.4°F-4.2°C 49% 3.0 mph NW4.8 kmh NW -- 29.81 in1009.5 mb 0.00 in0.0 mm 0.00 in0.0 mm 0.00 in0.0 mm
09:54 PM 43.0°F6.1°C 24.9°F-3.9°C 49% 3.0 mph SW4.8 kmh SW -- 29.82 in1009.8 mb 0.00 in0.0 mm 0.00 in0.0 mm 0.00 in0.0 mm
09:59 PM 43.5°F6.4°C 24.9°F-3.9°C 48% 5.0 mph WSW8.0 kmh WSW -- 29.81 in1009.5 mb 0.00 in0.0 mm 0.00 in0.0 mm 0.00 in0.0 mm
10:04 PM 43.8°F6.6°C 25.3°F-3.7°C 48% 2.0 mph WSW3.2 kmh WSW -- 29.82 in1009.8 mb 0.00 in0.0 mm 0.00 in0.0 mm 0.00 in0.0 mm
10:09 PM 44.2°F6.8°C 25.1°F-3.8°C 47% 3.0 mph NW4.8 kmh NW -- 29.82 in1009.8 mb 0.00 in0.0 mm 0.00 in0.0 mm 0.00 in0.0 mm
10:14 PM 44.5°F6.9°C 25.3°F-3.7°C 47% 3.0 mph SW4.8 kmh SW -- 29.82 in1009.8 mb 0.00 in0.0 mm 0.00 in0.0 mm 0.00 in0.0 mm
10:19 PM 44.4°F6.9°C 25.3°F-3.7°C 47% 2.0 mph NW3.2 kmh NW -- 29.81 in1009.5 mb 0.00 in0.0 mm 0.00 in0.0 mm 0.00 in0.0 mm
10:23 PM 44.6°F7.0°C 25.4°F-3.7°C 47% 2.0 mph SW3.2 kmh SW -- 29.82 in1009.8 mb 0.00 in0.0 mm 0.00 in0.0 mm 0.00 in0.0 mm
10:29 PM 45.0°F7.2°C 25.8°F-3.4°C 47% 2.0 mph NE3.2 kmh NE -- 29.82 in1009.8 mb 0.00 in0.0 mm 0.00 in0.0 mm 0.00 in0.0 mm
10:34 PM 45.3°F7.4°C 26.1°F-3.3°C 47% 1.0 mph S1.6 kmh S -- 29.82 in1009.8 mb 0.00 in0.0 mm 0.00 in0.0 mm 0.00 in0.0 mm
10:38 PM 45.4°F7.4°C 25.6°F-3.6°C 46% 2.0 mph NE3.2 kmh NE -- 29.82 in1009.8 mb 0.00 in0.0 mm 0.00 in0.0 mm 0.00 in0.0 mm
10:44 PM 45.6°F7.6°C 25.9°F-3.4°C 46% 2.0 mph E3.2 kmh E -- 29.82 in1009.8 mb 0.00 in0.0 mm 0.00 in0.0 mm 0.00 in0.0 mm
10:49 PM 45.6°F7.6°C 25.9°F-3.4°C 46% 2.0 mph WSW3.2 kmh WSW -- 29.82 in1009.8 mb 0.00 in0.0 mm 0.00 in0.0 mm 0.00 in0.0 mm
10:54 PM 45.5°F7.5°C 25.7°F-3.5°C 46% 1.0 mph SSW1.6 kmh SSW -- 29.82 in1009.8 mb 0.00 in0.0 mm 0.00 in0.0 mm 0.00 in0.0 mm
10:59 PM 45.5°F7.5°C 25.2°F-3.8°C 45% 3.0 mph SW4.8 kmh SW -- 29.82 in1009.8 mb 0.00 in0.0 mm 0.00 in0.0 mm 0.00 in0.0 mm
11:04 PM 45.7°F7.6°C 25.9°F-3.4°C 46% 3.0 mph SSE4.8 kmh SSE -- 29.82 in1009.8 mb 0.00 in0.0 mm 0.00 in0.0 mm 0.00 in0.0 mm
11:08 PM 45.4°F7.4°C 26.1°F-3.3°C 47% 3.0 mph SSE4.8 kmh SSE -- 29.82 in1009.8 mb 0.00 in0.0 mm 0.00 in0.0 mm 0.00 in0.0 mm
11:09 PM 45.4°F7.4°C 26.1°F-3.3°C 47% 2.0 mph WSW3.2 kmh WSW -- 29.82 in1009.8 mb 0.00 in0.0 mm 0.00 in0.0 mm 0.00 in0.0 mm
11:14 PM 44.9°F7.2°C 25.8°F-3.4°C 47% 1.0 mph SE1.6 kmh SE -- 29.82 in1009.8 mb 0.00 in0.0 mm 0.00 in0.0 mm 0.00 in0.0 mm
11:19 PM 44.3°F6.8°C 25.6°F-3.6°C 48% 4.0 mph SW6.4 kmh SW -- 29.81 in1009.5 mb 0.00 in0.0 mm 0.00 in0.0 mm 0.00 in0.0 mm
11:24 PM 44.3°F6.8°C 25.1°F-3.8°C 47% 3.0 mph N4.8 kmh N -- 29.81 in1009.5 mb 0.00 in0.0 mm 0.00 in0.0 mm 0.00 in0.0 mm
11:29 PM 44.5°F6.9°C 25.3°F-3.7°C 47% 2.0 mph WSW3.2 kmh WSW -- 29.81 in1009.5 mb 0.00 in0.0 mm 0.00 in0.0 mm 0.00 in0.0 mm
11:34 PM 44.7°F7.1°C 25.6°F-3.6°C 47% 4.0 mph W6.4 kmh W -- 29.81 in1009.5 mb 0.00 in0.0 mm 0.00 in0.0 mm 0.00 in0.0 mm
11:39 PM 44.8°F7.1°C 25.1°F-3.8°C 46% 6.0 mph W9.7 kmh W -- 29.81 in1009.5 mb 0.00 in0.0 mm 0.00 in0.0 mm 0.00 in0.0 mm
11:44 PM 44.9°F7.2°C 25.8°F-3.4°C 47% 5.0 mph WNW8.0 kmh WNW -- 29.81 in1009.5 mb 0.00 in0.0 mm 0.00 in0.0 mm 0.00 in0.0 mm
11:49 PM 45.6°F7.6°C 24.8°F-4.0°C 44% 9.0 mph W14.5 kmh W -- 29.81 in1009.5 mb 0.00 in0.0 mm 0.00 in0.0 mm 0.00 in0.0 mm
11:54 PM 46.2°F7.9°C 24.8°F-4.0°C 43% 3.0 mph NE4.8 kmh NE -- 29.81 in1009.5 mb 0.00 in0.0 mm 0.00 in0.0 mm 0.00 in0.0 mm
11:59 PM 46.4°F8.0°C 24.9°F-3.9°C 43% 5.0 mph WNW8.0 kmh WNW -- 29.81 in1009.5 mb 0.00 in0.0 mm 0.00 in0.0 mm 0.00 in0.0 mm